sensor_id;sensor_type;location;lat;lon;timestamp;P1;durP1;ratioP1;P2;durP2;ratioP2
37115;SDS011;23025;41.996;23.098;2023-02-28T00:01:05;1.70;;;1.60;;
37115;SDS011;23025;41.996;23.098;2023-02-28T00:03:32;2.63;;;2.42;;
37115;SDS011;23025;41.996;23.098;2023-02-28T00:06:00;3.05;;;2.42;;
37115;SDS011;23025;41.996;23.098;2023-02-28T00:08:26;1.77;;;1.67;;
37115;SDS011;23025;41.996;23.098;2023-02-28T00:10:53;2.13;;;2.03;;
37115;SDS011;23025;41.996;23.098;2023-02-28T00:13:20;2.13;;;2.03;;
37115;SDS011;23025;41.996;23.098;2023-02-28T00:15:48;2.63;;;2.53;;
37115;SDS011;23025;41.996;23.098;2023-02-28T00:18:24;2.35;;;2.25;;
37115;SDS011;23025;41.996;23.098;2023-02-28T00:20:50;3.28;;;3.17;;
37115;SDS011;23025;41.996;23.098;2023-02-28T00:23:17;2.22;;;2.13;;
37115;SDS011;23025;41.996;23.098;2023-02-28T00:25:43;2.70;;;2.50;;
37115;SDS011;23025;41.996;23.098;2023-02-28T00:28:10;2.85;;;2.72;;
37115;SDS011;23025;41.996;23.098;2023-02-28T00:30:37;1.95;;;1.85;;
37115;SDS011;23025;41.996;23.098;2023-02-28T00:33:05;3.13;;;2.55;;
37115;SDS011;23025;41.996;23.098;2023-02-28T00:35:32;2.35;;;2.25;;
37115;SDS011;23025;41.996;23.098;2023-02-28T00:37:58;2.17;;;2.08;;
37115;SDS011;23025;41.996;23.098;2023-02-28T00:40:25;2.20;;;2.10;;
37115;SDS011;23025;41.996;23.098;2023-02-28T00:42:51;2.75;;;2.65;;
37115;SDS011;23025;41.996;23.098;2023-02-28T00:45:18;5.90;;;5.60;;
37115;SDS011;23025;41.996;23.098;2023-02-28T00:47:45;3.10;;;2.88;;
37115;SDS011;23025;41.996;23.098;2023-02-28T00:52:43;8.48;;;2.22;;
37115;SDS011;23025;41.996;23.098;2023-02-28T00:55:10;3.80;;;2.42;;
37115;SDS011;23025;41.996;23.098;2023-02-28T00:57:36;2.75;;;2.65;;
37115;SDS011;23025;41.996;23.098;2023-02-28T01:00:04;5.03;;;4.75;;
37115;SDS011;23025;41.996;23.098;2023-02-28T01:02:31;1.98;;;1.88;;
37115;SDS011;23025;41.996;23.098;2023-02-28T01:04:57;2.72;;;2.63;;
37115;SDS011;23025;41.996;23.098;2023-02-28T01:07:24;3.08;;;2.90;;
37115;SDS011;23025;41.996;23.098;2023-02-28T01:09:52;2.22;;;2.13;;
37115;SDS011;23025;41.996;23.098;2023-02-28T01:12:18;2.30;;;2.20;;
37115;SDS011;23025;41.996;23.098;2023-02-28T01:14:45;3.03;;;2.92;;
37115;SDS011;23025;41.996;23.098;2023-02-28T01:17:11;2.42;;;2.33;;
37115;SDS011;23025;41.996;23.098;2023-02-28T01:19:38;2.15;;;2.05;;
37115;SDS011;23025;41.996;23.098;2023-02-28T01:22:05;1.63;;;1.60;;
37115;SDS011;23025;41.996;23.098;2023-02-28T01:24:32;2.67;;;2.58;;
37115;SDS011;23025;41.996;23.098;2023-02-28T01:27:00;2.05;;;1.95;;
37115;SDS011;23025;41.996;23.098;2023-02-28T01:29:26;1.65;;;1.55;;
37115;SDS011;23025;41.996;23.098;2023-02-28T01:31:53;2.42;;;2.33;;
37115;SDS011;23025;41.996;23.098;2023-02-28T01:34:20;2.42;;;2.33;;
37115;SDS011;23025;41.996;23.098;2023-02-28T01:36:46;2.50;;;2.38;;
37115;SDS011;23025;41.996;23.098;2023-02-28T01:39:13;1.88;;;1.77;;
37115;SDS011;23025;41.996;23.098;2023-02-28T01:41:39;3.92;;;3.50;;
37115;SDS011;23025;41.996;23.098;2023-02-28T01:46:49;2.28;;;2.17;;
37115;SDS011;23025;41.996;23.098;2023-02-28T01:49:15;1.85;;;1.75;;
37115;SDS011;23025;41.996;23.098;2023-02-28T01:51:44;3.80;;;3.60;;
37115;SDS011;23025;41.996;23.098;2023-02-28T01:54:16;3.60;;;3.13;;
37115;SDS011;23025;41.996;23.098;2023-02-28T01:56:45;3.58;;;3.42;;
37115;SDS011;23025;41.996;23.098;2023-02-28T01:59:14;3.72;;;3.47;;
37115;SDS011;23025;41.996;23.098;2023-02-28T02:01:45;3.38;;;2.90;;
37115;SDS011;23025;41.996;23.098;2023-02-28T02:04:13;2.50;;;2.33;;
37115;SDS011;23025;41.996;23.098;2023-02-28T02:06:41;3.75;;;3.63;;
37115;SDS011;23025;41.996;23.098;2023-02-28T02:09:09;2.40;;;2.20;;
37115;SDS011;23025;41.996;23.098;2023-02-28T02:11:35;2.90;;;2.80;;
37115;SDS011;23025;41.996;23.098;2023-02-28T02:16:50;4.28;;;3.97;;
37115;SDS011;23025;41.996;23.098;2023-02-28T02:22:12;2.80;;;2.60;;
37115;SDS011;23025;41.996;23.098;2023-02-28T02:27:25;4.25;;;3.63;;
37115;SDS011;23025;41.996;23.098;2023-02-28T02:32:44;2.65;;;2.45;;
37115;SDS011;23025;41.996;23.098;2023-02-28T02:35:15;5.72;;;2.83;;
37115;SDS011;23025;41.996;23.098;2023-02-28T02:37:46;2.42;;;2.33;;
37115;SDS011;23025;41.996;23.098;2023-02-28T02:40:15;3.80;;;2.58;;
37115;SDS011;23025;41.996;23.098;2023-02-28T02:42:46;3.92;;;3.63;;
37115;SDS011;23025;41.996;23.098;2023-02-28T02:45:15;3.97;;;3.72;;
37115;SDS011;23025;41.996;23.098;2023-02-28T02:47:44;4.18;;;3.88;;
37115;SDS011;23025;41.996;23.098;2023-02-28T02:50:12;3.75;;;3.53;;
37115;SDS011;23025;41.996;23.098;2023-02-28T02:52:42;3.72;;;3.20;;
37115;SDS011;23025;41.996;23.098;2023-02-28T02:55:11;3.63;;;2.72;;
37115;SDS011;23025;41.996;23.098;2023-02-28T02:57:39;5.35;;;4.95;;
37115;SDS011;23025;41.996;23.098;2023-02-28T03:00:08;3.92;;;3.55;;
37115;SDS011;23025;41.996;23.098;2023-02-28T03:02:35;3.70;;;3.08;;
37115;SDS011;23025;41.996;23.098;2023-02-28T03:05:03;5.05;;;4.65;;
37115;SDS011;23025;41.996;23.098;2023-02-28T03:07:30;4.22;;;3.83;;
37115;SDS011;23025;41.996;23.098;2023-02-28T03:09:58;4.03;;;3.78;;
37115;SDS011;23025;41.996;23.098;2023-02-28T03:12:27;5.35;;;3.33;;
37115;SDS011;23025;41.996;23.098;2023-02-28T03:15:01;3.55;;;3.25;;
37115;SDS011;23025;41.996;23.098;2023-02-28T03:17:33;3.50;;;3.30;;
37115;SDS011;23025;41.996;23.098;2023-02-28T03:20:04;3.25;;;3.05;;
37115;SDS011;23025;41.996;23.098;2023-02-28T03:22:37;3.92;;;2.42;;
37115;SDS011;23025;41.996;23.098;2023-02-28T03:25:08;4.03;;;3.67;;
37115;SDS011;23025;41.996;23.098;2023-02-28T03:27:39;3.38;;;3.25;;
37115;SDS011;23025;41.996;23.098;2023-02-28T03:30:10;2.70;;;2.53;;
37115;SDS011;23025;41.996;23.098;2023-02-28T03:32:40;3.53;;;3.33;;
37115;SDS011;23025;41.996;23.098;2023-02-28T03:35:10;4.57;;;4.30;;
37115;SDS011;23025;41.996;23.098;2023-02-28T03:37:38;3.10;;;2.90;;
37115;SDS011;23025;41.996;23.098;2023-02-28T03:40:08;3.13;;;2.92;;
37115;SDS011;23025;41.996;23.098;2023-02-28T03:42:38;3.42;;;3.22;;
37115;SDS011;23025;41.996;23.098;2023-02-28T03:45:08;4.82;;;4.43;;
37115;SDS011;23025;41.996;23.098;2023-02-28T03:47:37;5.40;;;4.88;;
37115;SDS011;23025;41.996;23.098;2023-02-28T03:50:06;3.28;;;3.15;;
37115;SDS011;23025;41.996;23.098;2023-02-28T03:52:35;2.67;;;2.55;;
37115;SDS011;23025;41.996;23.098;2023-02-28T03:55:04;3.72;;;3.58;;
37115;SDS011;23025;41.996;23.098;2023-02-28T03:57:36;2.05;;;1.95;;
37115;SDS011;23025;41.996;23.098;2023-02-28T04:00:05;4.00;;;3.72;;
37115;SDS011;23025;41.996;23.098;2023-02-28T04:02:34;2.92;;;2.75;;
37115;SDS011;23025;41.996;23.098;2023-02-28T04:05:01;1.88;;;1.73;;
37115;SDS011;23025;41.996;23.098;2023-02-28T04:07:28;3.17;;;2.78;;
37115;SDS011;23025;41.996;23.098;2023-02-28T04:09:55;2.72;;;2.63;;
37115;SDS011;23025;41.996;23.098;2023-02-28T04:12:21;3.28;;;2.92;;
37115;SDS011;23025;41.996;23.098;2023-02-28T04:14:50;3.95;;;3.65;;
37115;SDS011;23025;41.996;23.098;2023-02-28T04:17:17;3.55;;;3.10;;
37115;SDS011;23025;41.996;23.098;2023-02-28T04:19:44;3.08;;;2.88;;
37115;SDS011;23025;41.996;23.098;2023-02-28T04:22:11;3.42;;;3.17;;
37115;SDS011;23025;41.996;23.098;2023-02-28T04:24:37;4.05;;;3.80;;
37115;SDS011;23025;41.996;23.098;2023-02-28T04:27:06;4.25;;;4.03;;
37115;SDS011;23025;41.996;23.098;2023-02-28T04:29:33;6.00;;;5.70;;
37115;SDS011;23025;41.996;23.098;2023-02-28T04:32:01;4.60;;;4.40;;
37115;SDS011;23025;41.996;23.098;2023-02-28T04:34:29;4.07;;;3.50;;
37115;SDS011;23025;41.996;23.098;2023-02-28T04:36:56;2.60;;;2.47;;
37115;SDS011;23025;41.996;23.098;2023-02-28T04:39:23;2.75;;;2.63;;
37115;SDS011;23025;41.996;23.098;2023-02-28T04:41:50;4.63;;;4.25;;
37115;SDS011;23025;41.996;23.098;2023-02-28T04:44:16;2.90;;;2.25;;
37115;SDS011;23025;41.996;23.098;2023-02-28T04:46:43;2.50;;;2.40;;
37115;SDS011;23025;41.996;23.098;2023-02-28T04:49:12;3.78;;;3.22;;
37115;SDS011;23025;41.996;23.098;2023-02-28T04:51:39;3.60;;;3.05;;
37115;SDS011;23025;41.996;23.098;2023-02-28T04:54:05;3.03;;;2.83;;
37115;SDS011;23025;41.996;23.098;2023-02-28T04:56:32;2.00;;;1.90;;
37115;SDS011;23025;41.996;23.098;2023-02-28T04:58:59;3.65;;;2.58;;
37115;SDS011;23025;41.996;23.098;2023-02-28T05:01:26;3.50;;;3.30;;
37115;SDS011;23025;41.996;23.098;2023-02-28T05:03:53;2.63;;;2.47;;
37115;SDS011;23025;41.996;23.098;2023-02-28T05:06:22;5.10;;;3.55;;
37115;SDS011;23025;41.996;23.098;2023-02-28T05:08:49;4.43;;;4.07;;
37115;SDS011;23025;41.996;23.098;2023-02-28T05:11:18;5.38;;;4.55;;
37115;SDS011;23025;41.996;23.098;2023-02-28T05:13:45;3.38;;;3.03;;
37115;SDS011;23025;41.996;23.098;2023-02-28T05:16:12;4.03;;;3.80;;
37115;SDS011;23025;41.996;23.098;2023-02-28T05:18:38;4.90;;;4.50;;
37115;SDS011;23025;41.996;23.098;2023-02-28T05:21:05;6.28;;;5.72;;
37115;SDS011;23025;41.996;23.098;2023-02-28T05:23:33;7.32;;;4.25;;
37115;SDS011;23025;41.996;23.098;2023-02-28T05:26:00;3.50;;;3.25;;
37115;SDS011;23025;41.996;23.098;2023-02-28T05:28:26;5.78;;;5.13;;
37115;SDS011;23025;41.996;23.098;2023-02-28T05:30:53;4.28;;;3.97;;
37115;SDS011;23025;41.996;23.098;2023-02-28T05:33:19;4.45;;;4.25;;
37115;SDS011;23025;41.996;23.098;2023-02-28T05:35:46;6.72;;;4.50;;
37115;SDS011;23025;41.996;23.098;2023-02-28T05:38:12;4.72;;;4.43;;
37115;SDS011;23025;41.996;23.098;2023-02-28T05:40:40;5.07;;;4.75;;
37115;SDS011;23025;41.996;23.098;2023-02-28T05:43:09;3.55;;;3.25;;
37115;SDS011;23025;41.996;23.098;2023-02-28T05:45:36;4.40;;;3.88;;
37115;SDS011;23025;41.996;23.098;2023-02-28T05:48:03;4.43;;;4.03;;
37115;SDS011;23025;41.996;23.098;2023-02-28T05:50:30;5.18;;;4.90;;
37115;SDS011;23025;41.996;23.098;2023-02-28T05:52:56;4.63;;;4.43;;
37115;SDS011;23025;41.996;23.098;2023-02-28T05:55:23;4.63;;;4.40;;
37115;SDS011;23025;41.996;23.098;2023-02-28T05:57:51;3.50;;;3.20;;
37115;SDS011;23025;41.996;23.098;2023-02-28T06:00:18;4.25;;;3.95;;
37115;SDS011;23025;41.996;23.098;2023-02-28T06:02:44;4.07;;;3.65;;
37115;SDS011;23025;41.996;23.098;2023-02-28T06:05:13;4.70;;;4.40;;
37115;SDS011;23025;41.996;23.098;2023-02-28T06:07:41;4.25;;;3.85;;
37115;SDS011;23025;41.996;23.098;2023-02-28T06:10:08;3.70;;;3.47;;
37115;SDS011;23025;41.996;23.098;2023-02-28T06:12:35;4.85;;;4.45;;
37115;SDS011;23025;41.996;23.098;2023-02-28T06:15:03;4.03;;;3.60;;
37115;SDS011;23025;41.996;23.098;2023-02-28T06:17:30;4.10;;;3.83;;
37115;SDS011;23025;41.996;23.098;2023-02-28T06:19:56;2.25;;;2.15;;
37115;SDS011;23025;41.996;23.098;2023-02-28T06:22:23;4.25;;;3.97;;
37115;SDS011;23025;41.996;23.098;2023-02-28T06:24:49;7.65;;;6.05;;
37115;SDS011;23025;41.996;23.098;2023-02-28T06:27:17;5.70;;;5.18;;
37115;SDS011;23025;41.996;23.098;2023-02-28T06:29:45;5.90;;;5.07;;
37115;SDS011;23025;41.996;23.098;2023-02-28T06:32:13;3.42;;;3.22;;
37115;SDS011;23025;41.996;23.098;2023-02-28T06:34:40;5.18;;;4.18;;
37115;SDS011;23025;41.996;23.098;2023-02-28T06:37:06;8.65;;;6.88;;
37115;SDS011;23025;41.996;23.098;2023-02-28T06:39:33;5.95;;;5.55;;
37115;SDS011;23025;41.996;23.098;2023-02-28T06:41:59;5.95;;;5.50;;
37115;SDS011;23025;41.996;23.098;2023-02-28T06:44:26;4.63;;;4.07;;
37115;SDS011;23025;41.996;23.098;2023-02-28T06:46:58;6.38;;;4.78;;
37115;SDS011;23025;41.996;23.098;2023-02-28T06:49:26;7.85;;;6.75;;
37115;SDS011;23025;41.996;23.098;2023-02-28T06:51:52;3.90;;;3.58;;
37115;SDS011;23025;41.996;23.098;2023-02-28T06:54:20;6.25;;;5.72;;
37115;SDS011;23025;41.996;23.098;2023-02-28T06:56:46;6.15;;;5.60;;
37115;SDS011;23025;41.996;23.098;2023-02-28T06:59:13;7.05;;;5.93;;
37115;SDS011;23025;41.996;23.098;2023-02-28T07:01:40;4.15;;;3.85;;
37115;SDS011;23025;41.996;23.098;2023-02-28T07:04:06;6.07;;;5.57;;
37115;SDS011;23025;41.996;23.098;2023-02-28T07:06:34;6.38;;;5.97;;
37115;SDS011;23025;41.996;23.098;2023-02-28T07:09:01;5.18;;;4.88;;
37115;SDS011;23025;41.996;23.098;2023-02-28T07:11:29;6.00;;;4.82;;
37115;SDS011;23025;41.996;23.098;2023-02-28T07:13:56;6.57;;;5.32;;
37115;SDS011;23025;41.996;23.098;2023-02-28T07:16:23;6.68;;;4.57;;
37115;SDS011;23025;41.996;23.098;2023-02-28T07:18:51;6.00;;;5.60;;
37115;SDS011;23025;41.996;23.098;2023-02-28T07:21:18;3.65;;;3.40;;
37115;SDS011;23025;41.996;23.098;2023-02-28T07:23:46;4.35;;;4.15;;
37115;SDS011;23025;41.996;23.098;2023-02-28T07:26:13;5.35;;;5.05;;
37115;SDS011;23025;41.996;23.098;2023-02-28T07:28:40;3.90;;;3.67;;
37115;SDS011;23025;41.996;23.098;2023-02-28T07:31:08;5.28;;;4.82;;
37115;SDS011;23025;41.996;23.098;2023-02-28T07:33:35;6.22;;;5.78;;
37115;SDS011;23025;41.996;23.098;2023-02-28T07:36:02;4.80;;;4.50;;
37115;SDS011;23025;41.996;23.098;2023-02-28T07:38:28;5.15;;;4.68;;
37115;SDS011;23025;41.996;23.098;2023-02-28T07:40:56;3.78;;;3.45;;
37115;SDS011;23025;41.996;23.098;2023-02-28T07:43:23;4.72;;;4.43;;
37115;SDS011;23025;41.996;23.098;2023-02-28T07:45:49;6.78;;;3.78;;
37115;SDS011;23025;41.996;23.098;2023-02-28T07:48:16;5.65;;;4.93;;
37115;SDS011;23025;41.996;23.098;2023-02-28T07:50:42;4.95;;;4.50;;
37115;SDS011;23025;41.996;23.098;2023-02-28T07:53:09;5.45;;;4.03;;
37115;SDS011;23025;41.996;23.098;2023-02-28T07:55:35;2.90;;;2.70;;
37115;SDS011;23025;41.996;23.098;2023-02-28T07:58:03;7.18;;;6.47;;
37115;SDS011;23025;41.996;23.098;2023-02-28T08:00:30;5.28;;;4.82;;
37115;SDS011;23025;41.996;23.098;2023-02-28T08:02:57;9.23;;;7.32;;
37115;SDS011;23025;41.996;23.098;2023-02-28T08:05:24;5.00;;;4.43;;
37115;SDS011;23025;41.996;23.098;2023-02-28T08:07:50;8.20;;;4.00;;
37115;SDS011;23025;41.996;23.098;2023-02-28T08:10:18;7.95;;;5.15;;
37115;SDS011;23025;41.996;23.098;2023-02-28T08:12:45;7.32;;;5.93;;
37115;SDS011;23025;41.996;23.098;2023-02-28T08:15:12;6.50;;;6.00;;
37115;SDS011;23025;41.996;23.098;2023-02-28T08:17:39;8.80;;;4.82;;
37115;SDS011;23025;41.996;23.098;2023-02-28T08:20:06;4.63;;;4.25;;
37115;SDS011;23025;41.996;23.098;2023-02-28T08:22:34;3.90;;;3.60;;
37115;SDS011;23025;41.996;23.098;2023-02-28T08:25:00;9.43;;;4.55;;
37115;SDS011;23025;41.996;23.098;2023-02-28T08:27:27;4.32;;;4.10;;
37115;SDS011;23025;41.996;23.098;2023-02-28T08:29:53;5.53;;;4.78;;
37115;SDS011;23025;41.996;23.098;2023-02-28T08:32:21;4.57;;;4.22;;
37115;SDS011;23025;41.996;23.098;2023-02-28T08:34:48;5.38;;;4.97;;
37115;SDS011;23025;41.996;23.098;2023-02-28T08:37:14;4.40;;;4.10;;
37115;SDS011;23025;41.996;23.098;2023-02-28T08:39:41;5.70;;;5.25;;
37115;SDS011;23025;41.996;23.098;2023-02-28T08:42:07;5.72;;;5.32;;
37115;SDS011;23025;41.996;23.098;2023-02-28T08:44:34;4.93;;;4.53;;
37115;SDS011;23025;41.996;23.098;2023-02-28T08:47:00;4.00;;;3.80;;
37115;SDS011;23025;41.996;23.098;2023-02-28T08:49:28;8.48;;;4.15;;
37115;SDS011;23025;41.996;23.098;2023-02-28T08:51:55;4.53;;;4.30;;
37115;SDS011;23025;41.996;23.098;2023-02-28T08:54:22;10.85;;;5.72;;
37115;SDS011;23025;41.996;23.098;2023-02-28T08:56:55;4.25;;;3.88;;
37115;SDS011;23025;41.996;23.098;2023-02-28T08:59:22;6.43;;;6.00;;
37115;SDS011;23025;41.996;23.098;2023-02-28T09:01:48;4.65;;;4.32;;
37115;SDS011;23025;41.996;23.098;2023-02-28T09:04:15;5.78;;;5.40;;
37115;SDS011;23025;41.996;23.098;2023-02-28T09:06:43;3.97;;;3.63;;
37115;SDS011;23025;41.996;23.098;2023-02-28T09:09:10;7.22;;;6.57;;
37115;SDS011;23025;41.996;23.098;2023-02-28T09:11:36;7.57;;;6.40;;
37115;SDS011;23025;41.996;23.098;2023-02-28T09:14:03;5.75;;;5.38;;
37115;SDS011;23025;41.996;23.098;2023-02-28T09:16:30;5.45;;;5.05;;
37115;SDS011;23025;41.996;23.098;2023-02-28T09:18:56;5.95;;;5.38;;
37115;SDS011;23025;41.996;23.098;2023-02-28T09:21:23;8.98;;;8.18;;
37115;SDS011;23025;41.996;23.098;2023-02-28T09:23:52;10.40;;;8.07;;
37115;SDS011;23025;41.996;23.098;2023-02-28T09:28:53;5.57;;;5.07;;
37115;SDS011;23025;41.996;23.098;2023-02-28T09:31:21;7.35;;;6.72;;
37115;SDS011;23025;41.996;23.098;2023-02-28T09:33:48;9.30;;;8.50;;
37115;SDS011;23025;41.996;23.098;2023-02-28T09:36:14;9.07;;;6.90;;
37115;SDS011;23025;41.996;23.098;2023-02-28T09:38:41;8.52;;;8.05;;
37115;SDS011;23025;41.996;23.098;2023-02-28T09:41:13;4.55;;;4.28;;
37115;SDS011;23025;41.996;23.098;2023-02-28T09:43:41;4.50;;;4.20;;
37115;SDS011;23025;41.996;23.098;2023-02-28T09:46:11;8.52;;;5.00;;
37115;SDS011;23025;41.996;23.098;2023-02-28T09:48:41;7.68;;;7.05;;
37115;SDS011;23025;41.996;23.098;2023-02-28T09:51:12;7.85;;;6.88;;
37115;SDS011;23025;41.996;23.098;2023-02-28T09:53:42;6.75;;;6.35;;
37115;SDS011;23025;41.996;23.098;2023-02-28T09:56:09;7.82;;;6.57;;
37115;SDS011;23025;41.996;23.098;2023-02-28T09:58:39;6.03;;;4.82;;
37115;SDS011;23025;41.996;23.098;2023-02-28T10:01:09;6.18;;;5.78;;
37115;SDS011;23025;41.996;23.098;2023-02-28T10:03:39;6.07;;;5.22;;
37115;SDS011;23025;41.996;23.098;2023-02-28T10:06:07;7.43;;;6.80;;
37115;SDS011;23025;41.996;23.098;2023-02-28T10:08:36;5.43;;;3.90;;
37115;SDS011;23025;41.996;23.098;2023-02-28T10:11:10;6.03;;;5.63;;
37115;SDS011;23025;41.996;23.098;2023-02-28T10:13:41;13.45;;;6.18;;
37115;SDS011;23025;41.996;23.098;2023-02-28T10:16:14;5.35;;;4.95;;
37115;SDS011;23025;41.996;23.098;2023-02-28T10:18:42;5.57;;;5.07;;
37115;SDS011;23025;41.996;23.098;2023-02-28T10:21:13;4.45;;;4.05;;
37115;SDS011;23025;41.996;23.098;2023-02-28T10:23:43;4.35;;;4.13;;
37115;SDS011;23025;41.996;23.098;2023-02-28T10:26:13;5.75;;;5.25;;
37115;SDS011;23025;41.996;23.098;2023-02-28T10:28:42;9.40;;;5.30;;
37115;SDS011;23025;41.996;23.098;2023-02-28T10:31:09;4.97;;;4.63;;
37115;SDS011;23025;41.996;23.098;2023-02-28T10:33:38;7.20;;;6.70;;
37115;SDS011;23025;41.996;23.098;2023-02-28T10:36:05;4.47;;;4.18;;
37115;SDS011;23025;41.996;23.098;2023-02-28T10:38:33;8.32;;;7.82;;
37115;SDS011;23025;41.996;23.098;2023-02-28T10:41:03;6.20;;;5.57;;
37115;SDS011;23025;41.996;23.098;2023-02-28T10:43:30;5.30;;;4.90;;
37115;SDS011;23025;41.996;23.098;2023-02-28T10:46:02;7.07;;;6.38;;
37115;SDS011;23025;41.996;23.098;2023-02-28T10:48:34;5.78;;;5.38;;
37115;SDS011;23025;41.996;23.098;2023-02-28T10:51:02;6.88;;;5.88;;
37115;SDS011;23025;41.996;23.098;2023-02-28T10:53:33;6.07;;;5.53;;
37115;SDS011;23025;41.996;23.098;2023-02-28T10:56:01;7.47;;;6.35;;
37115;SDS011;23025;41.996;23.098;2023-02-28T10:58:29;18.55;;;8.52;;
37115;SDS011;23025;41.996;23.098;2023-02-28T11:00:55;5.22;;;4.93;;
37115;SDS011;23025;41.996;23.098;2023-02-28T11:03:24;11.07;;;8.10;;
37115;SDS011;23025;41.996;23.098;2023-02-28T11:05:51;6.70;;;6.18;;
37115;SDS011;23025;41.996;23.098;2023-02-28T11:08:18;8.15;;;7.65;;
37115;SDS011;23025;41.996;23.098;2023-02-28T11:10:45;7.00;;;6.47;;
37115;SDS011;23025;41.996;23.098;2023-02-28T11:13:15;11.27;;;7.85;;
37115;SDS011;23025;41.996;23.098;2023-02-28T11:18:18;7.07;;;6.20;;
37115;SDS011;23025;41.996;23.098;2023-02-28T11:20:48;9.52;;;8.80;;
37115;SDS011;23025;41.996;23.098;2023-02-28T11:23:15;7.40;;;6.88;;
37115;SDS011;23025;41.996;23.098;2023-02-28T11:25:46;8.65;;;8.02;;
37115;SDS011;23025;41.996;23.098;2023-02-28T11:28:23;9.55;;;8.85;;
37115;SDS011;23025;41.996;23.098;2023-02-28T11:30:59;8.30;;;6.20;;
37115;SDS011;23025;41.996;23.098;2023-02-28T11:33:27;7.65;;;7.13;;
37115;SDS011;23025;41.996;23.098;2023-02-28T11:35:57;10.07;;;7.00;;
37115;SDS011;23025;41.996;23.098;2023-02-28T11:38:25;8.15;;;5.97;;
37115;SDS011;23025;41.996;23.098;2023-02-28T11:40:55;7.63;;;6.72;;
37115;SDS011;23025;41.996;23.098;2023-02-28T11:43:27;7.50;;;6.80;;
37115;SDS011;23025;41.996;23.098;2023-02-28T11:46:06;9.57;;;7.80;;
37115;SDS011;23025;41.996;23.098;2023-02-28T11:48:39;6.15;;;5.55;;
37115;SDS011;23025;41.996;23.098;2023-02-28T11:51:12;4.45;;;4.22;;
37115;SDS011;23025;41.996;23.098;2023-02-28T11:53:59;9.38;;;8.35;;
37115;SDS011;23025;41.996;23.098;2023-02-28T11:56:31;8.65;;;8.02;;
37115;SDS011;23025;41.996;23.098;2023-02-28T11:59:02;7.88;;;7.28;;
37115;SDS011;23025;41.996;23.098;2023-02-28T12:01:37;9.75;;;8.70;;
37115;SDS011;23025;41.996;23.098;2023-02-28T12:04:11;5.72;;;5.15;;
37115;SDS011;23025;41.996;23.098;2023-02-28T12:06:43;6.40;;;5.90;;
37115;SDS011;23025;41.996;23.098;2023-02-28T12:09:14;9.77;;;9.15;;
37115;SDS011;23025;41.996;23.098;2023-02-28T12:11:48;6.50;;;6.13;;
37115;SDS011;23025;41.996;23.098;2023-02-28T12:14:21;14.52;;;8.73;;
37115;SDS011;23025;41.996;23.098;2023-02-28T12:16:53;10.02;;;7.60;;
37115;SDS011;23025;41.996;23.098;2023-02-28T12:19:22;8.95;;;7.75;;
37115;SDS011;23025;41.996;23.098;2023-02-28T12:27:17;12.85;;;10.13;;
37115;SDS011;23025;41.996;23.098;2023-02-28T12:29:46;6.63;;;6.10;;
37115;SDS011;23025;41.996;23.098;2023-02-28T12:32:16;11.00;;;9.43;;
37115;SDS011;23025;41.996;23.098;2023-02-28T12:34:46;5.93;;;5.43;;
37115;SDS011;23025;41.996;23.098;2023-02-28T12:37:14;9.07;;;8.40;;
37115;SDS011;23025;41.996;23.098;2023-02-28T12:39:43;8.30;;;7.70;;
37115;SDS011;23025;41.996;23.098;2023-02-28T12:42:11;6.75;;;6.18;;
37115;SDS011;23025;41.996;23.098;2023-02-28T12:44:42;10.50;;;9.75;;
37115;SDS011;23025;41.996;23.098;2023-02-28T12:47:13;6.72;;;5.75;;
37115;SDS011;23025;41.996;23.098;2023-02-28T12:49:41;9.15;;;7.05;;
37115;SDS011;23025;41.996;23.098;2023-02-28T12:52:11;7.28;;;6.65;;
37115;SDS011;23025;41.996;23.098;2023-02-28T12:54:43;5.50;;;4.72;;
37115;SDS011;23025;41.996;23.098;2023-02-28T12:57:12;5.93;;;5.53;;
37115;SDS011;23025;41.996;23.098;2023-02-28T12:59:44;6.85;;;6.43;;
37115;SDS011;23025;41.996;23.098;2023-02-28T13:05:19;5.65;;;5.25;;
37115;SDS011;23025;41.996;23.098;2023-02-28T13:07:59;10.75;;;9.35;;
37115;SDS011;23025;41.996;23.098;2023-02-28T13:10:40;11.68;;;10.93;;
37115;SDS011;23025;41.996;23.098;2023-02-28T13:13:11;13.18;;;8.73;;
37115;SDS011;23025;41.996;23.098;2023-02-28T13:15:41;8.55;;;7.78;;
37115;SDS011;23025;41.996;23.098;2023-02-28T13:20:49;9.73;;;8.25;;
37115;SDS011;23025;41.996;23.098;2023-02-28T13:25:57;7.93;;;7.35;;
37115;SDS011;23025;41.996;23.098;2023-02-28T13:31:19;6.03;;;5.53;;
37115;SDS011;23025;41.996;23.098;2023-02-28T13:34:05;8.50;;;8.02;;
37115;SDS011;23025;41.996;23.098;2023-02-28T13:36:32;7.03;;;6.40;;
37115;SDS011;23025;41.996;23.098;2023-02-28T13:38:59;8.63;;;7.97;;
37115;SDS011;23025;41.996;23.098;2023-02-28T13:41:46;7.40;;;6.88;;
37115;SDS011;23025;41.996;23.098;2023-02-28T13:44:13;10.32;;;8.00;;
37115;SDS011;23025;41.996;23.098;2023-02-28T13:49:35;13.52;;;5.82;;
37115;SDS011;23025;41.996;23.098;2023-02-28T13:52:02;8.70;;;8.10;;
37115;SDS011;23025;41.996;23.098;2023-02-28T13:54:35;8.32;;;7.50;;
37115;SDS011;23025;41.996;23.098;2023-02-28T13:57:10;8.93;;;8.25;;
37115;SDS011;23025;41.996;23.098;2023-02-28T13:59:39;8.90;;;8.30;;
37115;SDS011;23025;41.996;23.098;2023-02-28T14:02:20;9.55;;;8.55;;
37115;SDS011;23025;41.996;23.098;2023-02-28T14:04:59;6.97;;;6.55;;
37115;SDS011;23025;41.996;23.098;2023-02-28T14:07:27;6.00;;;5.60;;
37115;SDS011;23025;41.996;23.098;2023-02-28T14:09:56;5.63;;;5.20;;
37115;SDS011;23025;41.996;23.098;2023-02-28T14:17:50;7.70;;;7.13;;
37115;SDS011;23025;41.996;23.098;2023-02-28T14:20:19;9.38;;;7.72;;
37115;SDS011;23025;41.996;23.098;2023-02-28T14:22:50;7.78;;;5.25;;
37115;SDS011;23025;41.996;23.098;2023-02-28T14:25:22;9.27;;;7.47;;
37115;SDS011;23025;41.996;23.098;2023-02-28T14:27:50;8.60;;;8.07;;
37115;SDS011;23025;41.996;23.098;2023-02-28T14:33:21;5.97;;;5.55;;
37115;SDS011;23025;41.996;23.098;2023-02-28T14:38:37;7.75;;;7.20;;
37115;SDS011;23025;41.996;23.098;2023-02-28T14:41:12;8.00;;;6.50;;
37115;SDS011;23025;41.996;23.098;2023-02-28T14:43:47;6.05;;;5.70;;
37115;SDS011;23025;41.996;23.098;2023-02-28T14:46:14;5.32;;;4.93;;
37115;SDS011;23025;41.996;23.098;2023-02-28T14:48:41;15.20;;;8.98;;
37115;SDS011;23025;41.996;23.098;2023-02-28T14:51:11;7.63;;;7.05;;
37115;SDS011;23025;41.996;23.098;2023-02-28T14:53:39;6.63;;;6.03;;
37115;SDS011;23025;41.996;23.098;2023-02-28T14:56:17;8.43;;;7.53;;
37115;SDS011;23025;41.996;23.098;2023-02-28T14:58:50;5.43;;;5.03;;
37115;SDS011;23025;41.996;23.098;2023-02-28T15:01:18;7.35;;;6.13;;
37115;SDS011;23025;41.996;23.098;2023-02-28T15:03:46;12.25;;;5.57;;
37115;SDS011;23025;41.996;23.098;2023-02-28T15:06:13;7.25;;;6.57;;
37115;SDS011;23025;41.996;23.098;2023-02-28T15:08:41;8.15;;;5.47;;
37115;SDS011;23025;41.996;23.098;2023-02-28T15:11:08;9.63;;;7.63;;
37115;SDS011;23025;41.996;23.098;2023-02-28T15:13:36;9.57;;;7.20;;
37115;SDS011;23025;41.996;23.098;2023-02-28T15:16:03;8.88;;;6.03;;
37115;SDS011;23025;41.996;23.098;2023-02-28T15:18:31;5.72;;;5.35;;
37115;SDS011;23025;41.996;23.098;2023-02-28T15:21:02;7.03;;;6.63;;
37115;SDS011;23025;41.996;23.098;2023-02-28T15:23:29;10.98;;;5.32;;
37115;SDS011;23025;41.996;23.098;2023-02-28T15:25:58;8.52;;;7.55;;
37115;SDS011;23025;41.996;23.098;2023-02-28T15:28:24;8.60;;;6.85;;
37115;SDS011;23025;41.996;23.098;2023-02-28T15:30:56;7.53;;;6.90;;
37115;SDS011;23025;41.996;23.098;2023-02-28T15:33:23;4.80;;;4.40;;